Time;durP1;ratioP1;P1;durP2;ratioP2;P2;SDS_P1;SDS_P2;PMS_P1;PMS_P2;Temp;Humidity;BMP_temperature;BMP_pressure;BME280_temperature;BME280_humidity;BME280_pressure;Samples;Min_cycle;Max_cycle;Signal;HPM_P1;HPM_P2
2023/08/03 00:00:43;;;;;;;1.35;0.65;;;;;;;16.06;100.00;98944.97;5130872;28;20269;-38
2023/08/03 00:03:08;;;;;;;;;;;;;;;16.12;100.00;98949.97;5131044;27;20525;-37
2023/08/03 00:05:34;;;;;;;2.72;0.90;;;;;;;16.09;100.00;98947.84;5130704;28;20291;-37
2023/08/03 00:07:59;;;;;;;;;;;;;;;16.12;100.00;98949.97;5131478;28;20035;-37
2023/08/03 00:10:24;;;;;;;1.57;1.10;;;;;;;16.08;100.00;98948.97;5122103;28;19912;-37
2023/08/03 00:12:50;;;;;;;;;;;;;;;16.15;100.00;98959.44;5117759;28;20261;-37
2023/08/03 00:15:16;;;;;;;5.32;1.38;;;;;;;16.13;100.00;98956.22;5117193;28;19918;-37
2023/08/03 00:17:42;;;;;;;2.65;0.98;;;;;;;16.15;100.00;98945.78;5116851;28;20115;-37
2023/08/03 00:20:08;;;;;;;;;;;;;;;16.19;100.00;98965.88;5117553;28;20035;-37
2023/08/03 00:22:34;;;;;;;2.42;1.02;;;;;;;16.10;100.00;98946.72;5117073;28;20010;-38
2023/08/03 00:25:00;;;;;;;;;;;;;;;16.22;100.00;98967.97;5117209;28;20035;-37
2023/08/03 00:27:26;;;;;;;3.53;1.30;;;;;;;16.16;100.00;98961.06;5117045;28;19911;-37
2023/08/03 00:29:52;;;;;;;2.97;1.27;;;;;;;16.18;100.00;98972.44;5116598;28;20030;-37
2023/08/03 00:32:17;;;;;;;;;;;;;;;16.25;100.00;98969.25;5117310;28;20044;-37
2023/08/03 00:34:43;;;;;;;3.17;1.73;;;;;;;16.20;100.00;98962.84;5116524;28;19950;-38
2023/08/03 00:37:09;;;;;;;;;;;;;;;16.26;100.00;98982.59;5117230;28;20035;-38
2023/08/03 00:39:35;;;;;;;3.65;1.80;;;;;;;16.21;100.00;98983.53;5116134;28;19912;-38
2023/08/03 00:42:00;;;;;;;;;;;;;;;16.28;100.00;98988.53;5117214;27;20028;-38
2023/08/03 00:44:25;;;;;;;4.43;2.10;;;;;;;16.22;100.00;98990.59;5116664;28;19960;-38
2023/08/03 00:46:51;;;;;;;;;;;;;;;16.27;100.00;99011.47;5116439;28;20261;-38
2023/08/03 00:49:16;;;;;;;4.20;1.95;;;;;;;16.18;100.00;99005.97;5115955;28;19915;-38
2023/08/03 00:51:41;;;;;;;;;;;;;;;16.28;100.00;99018.53;5116985;28;20031;-38
2023/08/03 00:54:07;;;;;;;10.27;2.78;;;;;;;16.27;100.00;99016.94;5116157;28;19930;-38
2023/08/03 00:56:35;;;;;;;;;;;;;;;16.33;100.00;99023.06;5116586;28;20092;-38
2023/08/03 00:59:06;;;;;;;9.38;3.08;;;;;;;16.18;100.00;99005.16;5116346;28;19922;-38
2023/08/03 01:01:32;;;;;;;5.78;2.67;;;;;;;16.29;100.00;99031.03;5116081;28;20072;-38
2023/08/03 01:03:57;;;;;;;;;;;;;;;16.34;100.00;99027.38;5116460;28;20055;-38
2023/08/03 01:06:22;;;;;;;5.80;2.33;;;;;;;16.34;100.00;99046.47;5116572;28;19912;-38
2023/08/03 01:08:48;;;;;;;;;;;;;;;16.36;100.00;99027.88;5116313;28;20270;-38
2023/08/03 01:11:13;;;;;;;3.67;1.92;;;;;;;16.29;100.00;99030.25;5115882;28;20265;-38
2023/08/03 01:13:39;;;;;;;;;;;;;;;16.40;100.00;99050.72;5116551;28;20034;-38
2023/08/03 01:16:06;;;;;;;4.95;2.60;;;;;;;16.34;100.00;99066.38;5115449;28;20287;-38
2023/08/03 01:18:32;;;;;;;5.55;2.55;;;;;;;16.32;100.00;99056.91;5115827;28;20031;-38
2023/08/03 01:20:57;;;;;;;;;;;;;;;16.37;100.00;99059.50;5115736;27;20392;-38
2023/08/03 01:23:23;;;;;;;6.78;2.90;;;;;;;16.35;100.00;99057.09;5114976;28;19959;-38
2023/08/03 01:25:48;;;;;;;;;;;;;;;16.39;100.00;99070.88;5116290;28;20024;-38
2023/08/03 01:28:13;;;;;;;5.13;3.00;;;;;;;16.33;100.00;99075.69;5115474;28;19955;-37
2023/08/03 01:30:39;;;;;;;;;;;;;;;16.36;100.00;99079.72;5115890;28;20265;-37
2023/08/03 01:33:04;;;;;;;6.15;2.45;;;;;;;16.21;100.00;99070.81;5116261;28;19907;-38
2023/08/03 01:35:29;;;;;;;;;;;;;;;16.32;100.00;99078.72;5115815;28;20455;-37
2023/08/03 01:37:54;;;;;;;3.65;1.83;;;;;;;16.27;100.00;99078.84;5114940;28;20329;-37
2023/08/03 01:40:20;;;;;;;;;;;;;;;16.32;100.00;99078.72;5115728;28;20055;-37
2023/08/03 01:42:45;;;;;;;4.72;2.53;;;;;;;16.27;100.00;99097.94;5115279;28;19933;-37
2023/08/03 01:45:10;;;;;;;;;;;;;;;16.29;100.00;99098.44;5115864;28;20024;-37
2023/08/03 01:47:36;;;;;;;7.38;3.90;;;;;;;16.25;100.00;99098.28;5115953;28;20404;-37
2023/08/03 01:50:02;;;;;;;;;;;;;;;16.29;100.00;99095.69;5115399;28;20107;-37
2023/08/03 01:52:27;;;;;;;8.75;4.80;;;;;;;16.19;100.00;99086.66;5115083;28;19907;-37
2023/08/03 01:54:52;;;;;;;;;;;;;;;16.27;100.00;99101.47;5115428;28;20023;-37
2023/08/03 01:57:18;;;;;;;8.63;5.25;;;;;;;16.25;100.00;99089.25;5115739;28;20408;-37
2023/08/03 01:59:43;;;;;;;;;;;;;;;16.28;100.00;99096.81;5116046;28;20047;-37
2023/08/03 02:02:09;;;;;;;9.75;4.40;;;;;;;16.27;100.00;99103.41;5114811;28;19911;-37
2023/08/03 02:04:34;;;;;;;;;;;;;;;16.28;100.00;99094.91;5115251;28;20080;-37
2023/08/03 02:07:08;;;;;;;6.53;3.60;;;;;;;16.25;100.00;99103.72;5115028;28;20245;-37
2023/08/03 02:09:33;;;;;;;7.38;3.75;;;;;;;16.20;100.00;99099.19;5114945;28;20270;-37
2023/08/03 02:11:58;;;;;;;;;;;;;;;16.28;100.00;99105.81;5115146;28;20478;-37
2023/08/03 02:14:24;;;;;;;6.87;3.03;;;;;;;16.23;100.00;99095.84;5115211;28;19916;-37
2023/08/03 02:16:49;;;;;;;;;;;;;;;16.27;100.00;99097.94;5115397;28;20254;-37
2023/08/03 02:19:14;;;;;;;4.93;2.50;;;;;;;16.21;100.00;99098.06;5114442;28;19934;-37
2023/08/03 02:21:39;;;;;;;;;;;;;;;16.28;100.00;99099.56;5115294;28;20055;-37
2023/08/03 02:24:05;;;;;;;4.57;1.90;;;;;;;16.25;100.00;99100.16;5114762;28;19907;-37
2023/08/03 02:26:30;;;;;;;;;;;;;;;16.29;100.00;99096.50;5114862;28;20669;-37
2023/08/03 02:28:55;;;;;;;5.77;2.00;;;;;;;16.23;100.00;99098.56;5114090;28;20356;-37
2023/08/03 02:31:20;;;;;;;;;;;;;;;16.29;100.00;99101.16;5115102;28;20661;-37
2023/08/03 02:33:46;;;;;;;4.97;2.28;;;;;;;16.19;100.00;99086.66;5114079;28;20306;-37
2023/08/03 02:36:11;;;;;;;;;;;;;;;16.27;100.00;99087.03;5114721;28;20068;-37
2023/08/03 02:38:37;;;;;;;6.72;2.13;;;;;;;16.22;100.00;99088.78;5114169;28;19911;-36
2023/08/03 02:41:02;;;;;;;;;;;;;;;16.26;100.00;99091.69;5114681;28;20023;-37
2023/08/03 02:43:27;;;;;;;9.37;3.87;;;;;;;16.20;100.00;99082.84;5114169;28;19912;-36
2023/08/03 02:45:53;;;;;;;;;;;;;;;16.23;100.00;99084.13;5114892;28;20757;-37
2023/08/03 02:48:18;;;;;;;10.15;3.03;;;;;;;16.11;100.00;99079.25;5113845;28;20260;-37
2023/08/03 02:50:44;;;;;;;;;;;;;;;16.22;100.00;99082.50;5114264;28;20027;-37
2023/08/03 02:53:09;;;;;;;11.90;3.03;;;;;;;16.08;100.00;99068.94;5114321;28;20356;-37
2023/08/03 02:55:34;;;;;;;;;;;;;;;16.19;100.00;99092.09;5115055;28;20023;-38
2023/08/03 02:57:59;;;;;;;9.10;3.10;;;;;;;16.08;100.00;99077.13;5114051;28;19915;-38
2023/08/03 03:00:25;;;;;;;;;;;;;;;16.10;100.00;99083.06;5115049;28;20271;-38
2023/08/03 03:02:50;;;;;;;12.80;3.43;;;;;;;16.03;100.00;99084.63;5114249;28;19915;-38
2023/08/03 03:05:15;;;;;;;;;;;;;;;16.05;100.00;99080.47;5114136;28;20606;-38
2023/08/03 03:07:41;;;;;;;11.85;3.20;;;;;;;15.99;100.00;99089.88;5113706;28;19935;-38
2023/08/03 03:10:06;;;;;;;;;;;;;;;16.02;100.00;99097.47;5114364;28;20049;-37
2023/08/03 03:12:31;;;;;;;11.30;3.58;;;;;;;15.94;100.00;99081.81;5113824;28;19908;-37
2023/08/03 03:14:56;;;;;;;;;;;;;;;16.00;100.00;99107.84;5114053;28;20028;-37
2023/08/03 03:17:22;;;;;;;9.23;2.90;;;;;;;15.90;100.00;99092.53;5113819;28;19922;-37
2023/08/03 03:19:47;;;;;;;10.55;3.17;;;;;;;15.93;100.00;99112.94;5113797;28;20285;-37
2023/08/03 03:22:12;;;;;;;;;;;;;;;15.96;100.00;99113.13;5114590;28;20023;-37
2023/08/03 03:24:38;;;;;;;10.10;3.40;;;;;;;15.94;100.00;99118.06;5113749;28;19911;-37
2023/08/03 03:27:03;;;;;;;;;;;;;;;16.00;100.00;99126.13;5113972;28;20253;-37
2023/08/03 03:29:28;;;;;;;10.80;2.47;;;;;;;15.93;100.00;99126.56;5113713;28;19914;-37
2023/08/03 03:31:53;;;;;;;;;;;;;;;16.00;100.00;99129.66;5114454;28;20024;-37
2023/08/03 03:34:19;;;;;;;11.23;2.80;;;;;;;15.91;100.00;99126.06;5114239;28;20290;-37
2023/08/03 03:36:44;;;;;;;;;;;;;;;16.02;100.00;99154.72;5114114;28;20257;-37
2023/08/03 03:39:09;;;;;;;7.10;2.23;;;;;;;15.98;100.00;99150.97;5113551;28;19918;-37
2023/08/03 03:41:35;;;;;;;7.97;2.38;;;;;;;15.98;100.00;99150.97;5114012;28;20333;-37
2023/08/03 03:44:00;;;;;;;;;;;;;;;16.03;100.00;99155.50;5114068;28;20085;-37
2023/08/03 03:46:25;;;;;;;7.17;2.00;;;;;;;15.99;100.00;99166.22;5116871;28;19953;-37
2023/08/03 03:48:50;;;;;;;8.07;2.30;;;;;;;15.96;100.00;99169.56;5117675;28;20270;-37
2023/08/03 03:51:18;;;;;;;5.05;1.88;;;;;;;15.96;100.00;99175.84;5117263;28;20055;-37
2023/08/03 03:53:44;;;;;;;5.45;2.10;;;;;;;15.95;100.00;99179.66;5117330;28;20027;-37
2023/08/03 03:56:09;;;;;;;7.47;2.40;;;;;;;15.92;100.00;99171.28;5117452;27;20028;-37
2023/08/03 03:58:34;;;;;;;;;;;;;;;16.00;100.00;99191.56;5117820;28;20055;-37
2023/08/03 04:01:00;;;;;;;6.03;2.43;;;;;;;15.96;100.00;99191.38;5117536;28;19915;-37
2023/08/03 04:03:26;;;;;;;6.35;2.20;;;;;;;15.94;100.00;99191.66;5116873;28;20265;-37
2023/08/03 04:05:52;;;;;;;;;;;;;;;15.99;100.00;99204.38;5117899;28;20039;-37
2023/08/03 04:08:17;;;;;;;4.38;1.75;;;;;;;15.95;100.00;99206.09;5117178;28;19911;-37
2023/08/03 04:10:42;;;;;;;;;;;;;;;16.00;100.00;99195.09;5117827;28;20024;-37
2023/08/03 04:13:08;;;;;;;6.75;2.00;;;;;;;15.96;100.00;99205.00;5117268;28;19916;-37
2023/08/03 04:15:33;;;;;;;;;;;;;;;16.00;100.00;99208.72;5117629;28;20023;-37
2023/08/03 04:17:58;;;;;;;3.27;1.47;;;;;;;15.96;100.00;99213.19;5117430;28;19916;-37
2023/08/03 04:20:24;;;;;;;7.13;2.03;;;;;;;15.94;100.00;99218.94;5116896;28;20349;-37
2023/08/03 04:22:49;;;;;;;;;;;;;;;15.99;100.00;99218.00;5117476;28;20024;-37
2023/08/03 04:25:14;;;;;;;5.10;1.23;;;;;;;15.95;100.00;99219.72;5116738;28;19953;-38
2023/08/03 04:27:39;;;;;;;2.88;1.15;;;;;;;15.96;100.00;99233.06;5116754;28;20264;-38
2023/08/03 04:30:05;;;;;;;;;;;;;;;16.00;100.00;99230.53;5116873;28;20080;-38
2023/08/03 04:32:30;;;;;;;2.78;1.17;;;;;;;15.99;100.00;99236.28;5117249;28;19956;-37
2023/08/03 04:34:56;;;;;;;;;;;;;;;16.03;100.00;99240.03;5116687;27;20036;-37
2023/08/03 04:37:21;;;;;;;2.83;1.00;;;;;;;16.00;100.00;99244.16;5116286;28;19960;-37
2023/08/03 04:39:46;;;;;;;;;;;;;;;16.05;100.00;99241.31;5116766;28;20305;-37
2023/08/03 04:42:11;;;;;;;5.00;1.30;;;;;;;15.93;100.00;99233.69;5116214;28;20347;-37
2023/08/03 04:44:37;;;;;;;;;;;;;;;16.05;100.00;99257.69;5117105;28;20049;-37
2023/08/03 04:47:02;;;;;;;1.90;0.80;;;;;;;15.99;100.00;99255.38;5116370;28;20359;-37
2023/08/03 04:49:27;;;;;;;3.38;1.00;;;;;;;15.93;100.00;99241.84;5116802;28;20276;-37
2023/08/03 04:51:53;;;;;;;;;;;;;;;16.03;100.00;99254.47;5116752;28;20028;-37
2023/08/03 04:54:19;;;;;;;4.38;1.20;;;;;;;16.00;100.00;99259.72;5116446;28;19919;-37
2023/08/03 04:56:44;;;;;;;2.67;0.93;;;;;;;16.00;100.00;99265.97;5116047;28;20034;-37
2023/08/03 04:59:10;;;;;;;1.67;0.77;;;;;;;16.00;100.00;99265.16;5116227;28;20047;-37
2023/08/03 05:01:35;;;;;;;3.35;1.00;;;;;;;15.96;100.00;99263.06;5116337;28;20088;-37
2023/08/03 05:04:01;;;;;;;;;;;;;;;16.02;100.00;99271.94;5116439;28;20361;-37
2023/08/03 05:06:27;;;;;;;2.50;1.00;;;;;;;15.99;100.00;99271.72;5115957;28;19912;-37
2023/08/03 05:08:52;;;;;;;4.90;1.67;;;;;;;15.91;100.00;99265.09;5115847;28;20032;-37
2023/08/03 05:11:17;;;;;;;3.22;1.08;;;;;;;15.93;100.00;99282.75;5116168;28;20046;-37
2023/08/03 05:13:43;;;;;;;;;;;;;;;16.01;100.00;99285.88;5116475;28;20023;-37
2023/08/03 05:16:09;;;;;;;3.93;1.33;;;;;;;15.97;100.00;99291.13;5115543;28;19969;-37
2023/08/03 05:18:34;;;;;;;;;;;;;;;15.99;100.00;99293.53;5116669;28;20360;-37
2023/08/03 05:20:59;;;;;;;3.13;1.03;;;;;;;15.89;100.00;99305.47;5115424;28;20398;-37
2023/08/03 05:23:25;;;;;;;2.58;1.02;;;;;;;15.92;100.00;99307.59;5115590;28;20603;-37
2023/08/03 05:25:54;;;;;;;;;;;;;;;15.95;100.00;99309.69;5115963;28;20098;-37
2023/08/03 05:28:20;;;;;;;2.92;1.00;;;;;;;15.86;100.00;99317.78;5116339;28;19935;-37
2023/08/03 05:30:46;;;;;;;;;;;;;;;15.94;100.00;99325.25;5115570;28;20382;-37
2023/08/03 05:33:11;;;;;;;5.15;1.20;;;;;;;15.83;100.00;99312.94;5115697;28;19911;-37
2023/08/03 05:35:36;;;;;;;;;;;;;;;15.94;100.00;99327.97;5115836;28;20047;-37
2023/08/03 05:38:02;;;;;;;4.55;1.27;;;;;;;15.91;100.00;99342.22;5116067;28;19916;-37
2023/08/03 05:40:27;;;;;;;;;;;;;;;15.99;100.00;99340.69;5124141;27;20510;-37
2023/08/03 05:42:52;;;;;;;8.80;1.50;;;;;;;15.92;100.00;99346.56;5136053;27;19952;-37
2023/08/03 05:45:33;;;;;;;;;;;;;;;16.02;100.00;99336.56;5136535;27;20526;-37
2023/08/03 05:47:59;;;;;;;5.20;1.50;;;;;;;15.99;100.00;99358.97;5135660;27;19911;-37
2023/08/03 05:50:25;;;;;;;4.85;1.40;;;;;;;15.96;100.00;99349.50;5135822;27;20463;-37
2023/08/03 05:52:51;;;;;;;6.10;1.67;;;;;;;16.01;100.00;99345.88;5135551;27;20110;-37
2023/08/03 05:55:16;;;;;;;;;;;;;;;16.10;100.00;99361.19;5135927;27;20046;-37
2023/08/03 05:57:42;;;;;;;7.10;1.77;;;;;;;16.06;100.00;99360.19;5135742;27;19907;-36
2023/08/03 06:00:28;;;;;;;6.65;1.50;;;;;;;16.08;100.00;99368.06;5135966;27;20055;-37
2023/08/03 06:02:56;;;;;;;8.77;2.05;;;;;;;16.11;100.00;99364.75;5135470;27;20056;-37
2023/08/03 06:05:46;;;;;;;7.72;1.67;;;;;;;16.17;100.00;99372.50;5135886;27;20034;-37
2023/08/03 06:08:25;;;;;;;5.38;1.25;;;;;;;16.20;100.00;99382.81;5134809;27;20059;-37
2023/08/03 06:10:57;;;;;;;5.88;1.40;;;;;;;16.19;100.00;99386.63;5135292;27;20027;-37
2023/08/03 06:13:29;;;;;;;6.22;1.30;;;;;;;16.20;100.00;99398.34;5135508;27;20025;-37
2023/08/03 06:15:55;;;;;;;10.18;1.88;;;;;;;16.18;100.00;99379.56;5135968;27;20027;-37
2023/08/03 06:18:21;;;;;;;10.68;1.52;;;;;;;16.17;100.00;99388.06;5135096;27;20490;-37
2023/08/03 06:20:51;;;;;;;10.05;1.55;;;;;;;16.28;100.00;99402.31;5135092;27;20353;-37
2023/08/03 06:23:25;;;;;;;6.55;1.40;;;;;;;16.30;100.00;99397.34;5134870;27;20027;-37
2023/08/03 06:25:52;;;;;;;7.78;1.77;;;;;;;16.31;100.00;99398.97;5135355;27;20034;-37
2023/08/03 06:28:20;;;;;;;9.00;1.63;;;;;;;16.32;100.00;99395.13;5135279;27;20023;-37
2023/08/03 06:30:47;;;;;;;5.32;1.42;;;;;;;16.38;100.00;99405.63;5135443;27;20023;-37
2023/08/03 06:33:15;;;;;;;5.40;1.48;;;;;;;16.33;100.00;99403.00;5135483;27;20051;-37
2023/08/03 06:35:43;;;;;;;9.80;2.70;;;;;;;16.25;100.00;99401.00;5135368;27;20459;-37
2023/08/03 06:38:11;;;;;;;5.95;1.52;;;;;;;16.28;100.00;99415.94;5135057;27;20445;-37
2023/08/03 06:40:39;;;;;;;5.82;1.33;;;;;;;16.26;100.00;99421.72;5134741;27;20034;-37
2023/08/03 06:43:04;;;;;;;6.78;1.50;;;;;;;16.26;100.00;99418.19;5134795;27;20019;-37
2023/08/03 06:45:30;;;;;;;;;;;;;;;16.32;100.00;99417.75;5134878;27;20049;-37
2023/08/03 06:47:56;;;;;;;6.55;1.63;;;;;;;16.31;100.00;99437.16;5135599;27;19961;-37
2023/08/03 06:50:22;;;;;;;;;;;;;;;16.39;100.00;99439.16;5135145;27;20375;-37
2023/08/03 06:52:48;;;;;;;3.13;1.20;;;;;;;16.32;100.00;99444.22;5134633;27;19911;-37
2023/08/03 06:55:13;;;;;;;;;;;;;;;16.40;100.00;99451.72;5135625;27;20023;-37
2023/08/03 06:57:38;;;;;;;3.95;1.30;;;;;;;16.32;100.00;99453.22;5134407;27;20319;-37
2023/08/03 07:00:05;;;;;;;;;;;;;;;16.40;100.00;99451.72;5134573;27;20376;-37
2023/08/03 07:02:30;;;;;;;5.57;1.20;;;;;;;16.36;100.00;99453.44;5134567;27;20272;-37
2023/08/03 07:04:55;;;;;;;5.40;1.38;;;;;;;16.38;100.00;99454.72;5135036;27;20024;-37
2023/08/03 07:07:21;;;;;;;;;;;;;;;16.43;100.00;99454.63;5134933;28;20057;-37
2023/08/03 07:09:49;;;;;;;7.87;1.67;;;;;;;16.42;100.00;99472.13;5134412;28;20400;-37
2023/08/03 07:12:15;;;;;;;4.03;1.20;;;;;;;16.36;100.00;99458.88;5135329;27;20634;-37
2023/08/03 07:14:41;;;;;;;;;;;;;;;16.50;100.00;99467.88;5135064;27;20102;-37
2023/08/03 07:17:07;;;;;;;4.63;1.42;;;;;;;16.45;100.00;99476.97;5134742;27;20252;-37
2023/08/03 07:19:32;;;;;;;;;;;;;;;16.52;100.00;99484.75;5134946;27;20027;-37
2023/08/03 07:21:57;;;;;;;4.93;1.27;;;;;;;16.49;100.00;99482.63;5138794;27;19915;-37
2023/08/03 07:24:23;;;;;;;;;;;;;;;16.56;100.00;99482.22;5139514;27;20799;-37
2023/08/03 07:26:49;;;;;;;6.50;1.33;;;;;;;16.48;100.00;99494.66;5138494;27;20370;-37
2023/08/03 07:29:14;;;;;;;;;;;;;;;16.52;100.00;99468.38;5139085;27;20023;-37
2023/08/03 07:31:40;;;;;;;4.53;1.40;;;;;;;16.44;100.00;99480.00;5139198;27;19918;-37
2023/08/03 07:34:05;;;;;;;;;;;;;;;16.51;100.00;99491.31;5139011;27;20034;-37
2023/08/03 07:36:30;;;;;;;6.53;1.67;;;;;;;16.43;100.00;99501.00;5138284;27;20367;-38
2023/08/03 07:38:55;;;;;;;;;;;;;;;16.50;100.00;99500.63;5138847;27;20835;-38
2023/08/03 07:41:21;;;;;;;8.75;1.67;;;;;;;16.47;100.00;99493.84;5138195;27;19911;-38
2023/08/03 07:43:47;;;;;;;;;;;;;;;16.51;100.00;99515.88;5138864;27;20023;-38
2023/08/03 07:46:13;;;;;;;7.28;1.88;;;;;;;16.44;100.00;99508.06;5138631;27;19937;-38
2023/08/03 07:48:38;;;;;;;7.40;1.50;;;;;;;16.46;100.00;99521.44;5137773;27;20027;-38
2023/08/03 07:51:13;;;;;;;;;;;;;;;16.55;100.00;99519.63;5138164;27;20038;-38
2023/08/03 07:53:39;;;;;;;4.55;1.52;;;;;;;16.53;100.00;99527.28;5137656;27;20013;-38
2023/08/03 07:56:12;;;;;;;;;;;;;;;16.57;100.00;99541.94;5138695;27;20094;-38
2023/08/03 07:58:38;;;;;;;6.50;1.80;;;;;;;16.47;100.00;99545.69;5137611;27;19915;-37
2023/08/03 08:01:06;;;;;;;;;;;;;;;16.51;100.00;99545.91;5138934;27;20043;-36
2023/08/03 08:03:31;;;;;;;5.57;1.70;;;;;;;16.43;100.00;99552.03;5137490;27;19911;-37
2023/08/03 08:06:26;;;;;;;;;;;;;;;16.48;100.00;99560.13;5138161;27;20023;-38
2023/08/03 08:08:51;;;;;;;6.25;1.83;;;;;;;16.45;100.00;99564.28;5103891;27;19954;-37
2023/08/03 08:11:17;;;;;;;;;;;;;;;16.51;100.00;99559.53;5118085;28;20511;-37
2023/08/03 08:13:43;;;;;;;6.95;1.60;;;;;;;16.49;100.00;99569.94;5117028;28;20014;-37
2023/08/03 08:16:10;;;;;;;;;;;;;;;16.55;100.00;99571.47;5117105;28;20479;-37
2023/08/03 08:18:36;;;;;;;5.90;1.48;;;;;;;16.55;100.00;99579.66;5116600;28;20384;-37
2023/08/03 08:21:03;;;;;;;;;;;;;;;16.60;100.00;99582.28;5117826;28;20151;-37
2023/08/03 08:23:29;;;;;;;6.03;1.80;;;;;;;16.48;100.00;99574.59;5117310;28;19954;-37
2023/08/03 08:25:54;;;;;;;;;;;;;;;16.57;100.00;99596.53;5117564;28;20042;-37
2023/08/03 08:28:20;;;;;;;6.32;1.45;;;;;;;16.52;100.00;99599.34;5117272;28;20344;-37
2023/08/03 08:30:45;;;;;;;;;;;;;;;16.55;100.00;99604.22;5116286;28;20024;-37
2023/08/03 08:33:14;;;;;;;5.93;1.58;;;;;;;16.49;100.00;99619.03;5117199;28;19911;-37
2023/08/03 08:35:39;;;;;;;5.07;1.27;;;;;;;16.50;100.00;99620.69;5116534;27;20063;-37
2023/08/03 08:38:05;;;;;;;;;;;;;;;16.56;100.00;99618.69;5117488;28;20055;-37
2023/08/03 08:40:37;;;;;;;4.07;1.23;;;;;;;16.51;100.00;99625.03;5116115;28;19912;-37
2023/08/03 08:43:03;;;;;;;5.68;1.20;;;;;;;16.50;100.00;99631.59;5117282;28;20357;-37
2023/08/03 08:45:31;;;;;;;;;;;;;;;16.55;100.00;99645.16;5116802;28;20030;-37
2023/08/03 08:47:57;;;;;;;5.40;2.25;;;;;;;16.43;100.00;99634.69;5116445;28;20274;-37
2023/08/03 08:50:23;;;;;;;;;;;;;;;16.56;100.00;99646.78;5117534;28;20111;-37
2023/08/03 08:52:50;;;;;;;5.72;1.40;;;;;;;16.56;100.00;99654.97;5116272;28;19912;-37
2023/08/03 08:55:18;;;;;;;4.93;1.40;;;;;;;16.61;100.00;99660.31;5116145;28;20035;-37
2023/08/03 08:57:44;;;;;;;6.18;1.48;;;;;;;16.59;100.00;99648.91;5116144;28;20055;-37
2023/08/03 09:00:09;;;;;;;;;;;;;;;16.76;100.00;99672.13;5115925;28;20507;-37
2023/08/03 09:02:35;;;;;;;6.45;2.97;;;;;;;16.73;100.00;99678.97;5116231;28;19916;-37
2023/08/03 09:05:12;;;;;;;;;;;;;;;16.83;100.00;99673.31;5116127;28;20024;-36
2023/08/03 09:07:38;;;;;;;7.40;2.03;;;;;;;16.87;100.00;99663.44;5115749;28;19916;-37
2023/08/03 09:10:03;;;;;;;;;;;;;;;17.02;100.00;99686.91;5116634;28;20050;-37
2023/08/03 09:12:29;;;;;;;4.18;1.30;;;;;;;17.14;100.00;99686.44;5115770;28;19918;-37
2023/08/03 09:14:58;;;;;;;;;;;;;;;17.32;100.00;99687.44;5116261;28;20035;-37
2023/08/03 09:17:24;;;;;;;4.15;1.20;;;;;;;17.38;100.00;99697.16;5115834;28;19911;-36
2023/08/03 09:19:49;;;;;;;;;;;;;;;17.59;100.00;99709.28;5116024;28;20151;-36
2023/08/03 09:22:18;;;;;;;4.80;1.52;;;;;;;17.64;100.00;99713.84;5116530;28;19920;-37
2023/08/03 09:24:47;;;;;;;5.50;1.45;;;;;;;17.68;100.00;99709.41;5115916;28;20368;-37
2023/08/03 09:27:19;;;;;;;4.95;1.40;;;;;;;17.72;100.00;99711.22;5115852;28;20361;-37
2023/08/03 09:29:44;;;;;;;6.80;2.30;;;;;;;17.72;100.00;99708.47;5115472;28;20038;-37
2023/08/03 09:32:11;;;;;;;;;;;;;;;17.95;100.00;99731.25;5116153;28;20027;-37
2023/08/03 09:34:44;;;;;;;4.57;1.10;;;;;;;17.87;100.00;99734.72;5115666;28;19958;-37
2023/08/03 09:37:11;;;;;;;4.32;1.58;;;;;;;17.78;100.00;99736.56;5115060;28;20028;-37
2023/08/03 09:39:38;;;;;;;3.25;1.30;;;;;;;17.77;100.00;99747.81;5115203;28;20028;-37
2023/08/03 09:42:05;;;;;;;5.78;1.40;;;;;;;17.82;100.00;99764.91;5114832;28;20035;-37
2023/08/03 09:44:36;;;;;;;5.32;1.38;;;;;;;17.83;100.00;99762.97;5114989;28;20024;-37
2023/08/03 09:47:05;;;;;;;4.00;1.52;;;;;;;17.82;100.00;99769.56;5115244;28;20016;-37
2023/08/03 09:49:31;;;;;;;4.75;1.38;;;;;;;17.83;100.00;99773.91;5115702;28;20063;-37
2023/08/03 09:51:59;;;;;;;4.63;1.38;;;;;;;17.85;100.00;99777.16;5114759;28;20023;-37
2023/08/03 09:54:57;;;;;;;4.10;1.40;;;;;;;17.90;100.00;99769.63;5115165;27;20038;-37
2023/08/03 09:57:27;;;;;;;6.55;1.80;;;;;;;17.91;100.00;99786.84;5115564;28;20016;-37
2023/08/03 09:59:58;;;;;;;8.15;1.80;;;;;;;17.97;100.00;99785.66;5115130;28;20055;-37
2023/08/03 10:02:28;;;;;;;6.68;1.70;;;;;;;18.06;100.00;99791.22;5114928;28;20468;-37
2023/08/03 10:05:00;;;;;;;7.47;2.10;;;;;;;18.11;100.00;99794.66;5114806;28;20036;-37
2023/08/03 10:07:32;;;;;;;7.28;2.00;;;;;;;18.18;100.00;99796.97;5114808;27;20035;-37
2023/08/03 10:10:01;;;;;;;5.65;1.50;;;;;;;18.24;100.00;99810.22;5115357;28;20106;-37
2023/08/03 10:12:43;;;;;;;4.82;1.67;;;;;;;18.25;100.00;99817.34;5115614;28;20080;-37
2023/08/03 10:15:10;;;;;;;6.65;2.03;;;;;;;18.46;100.00;99822.34;5115511;28;20047;-37
2023/08/03 10:17:37;;;;;;;8.60;1.83;;;;;;;18.69;100.00;99815.81;5114606;28;20027;-37
2023/08/03 10:20:04;;;;;;;9.77;1.70;;;;;;;18.81;100.00;99819.94;5115011;28;20110;-37
2023/08/03 10:22:29;;;;;;;5.32;1.73;;;;;;;18.88;100.00;99821.09;5114560;27;20035;-37
2023/08/03 10:25:14;;;;;;;;;;;;;;;19.09;100.00;99826.09;5114915;28;20039;-37
2023/08/03 10:27:39;;;;;;;8.80;2.83;;;;;;;19.03;100.00;99823.50;5114054;28;20253;-37
2023/08/03 10:30:05;;;;;;;;;;;;;;;19.19;100.00;99829.41;5114552;28;20035;-37
2023/08/03 10:32:30;;;;;;;8.90;2.33;;;;;;;19.09;100.00;99829.66;5115227;28;20002;-37
2023/08/03 10:35:34;;;;;;;6.07;2.20;;;;;;;19.37;100.00;99830.28;5115174;27;20367;-38
2023/08/03 10:38:00;;;;;;;7.15;1.98;;;;;;;19.51;100.00;99830.19;5114512;28;20028;-38
2023/08/03 10:40:26;;;;;;;5.65;1.60;;;;;;;19.69;100.00;99848.41;5114229;28;20029;-38
2023/08/03 10:43:07;;;;;;;;;;;;;;;19.82;100.00;99849.44;5115299;28;20375;-38
2023/08/03 10:45:33;;;;;;;5.80;1.60;;;;;;;19.48;100.00;99837.13;5115007;28;19914;-38
2023/08/03 10:48:16;;;;;;;;;;;;;;;19.59;100.00;99853.31;5114930;28;20371;-38
2023/08/03 10:50:57;;;;;;;6.18;1.70;;;;;;;19.38;100.00;99862.09;5114367;28;20480;-37
2023/08/03 10:53:22;;;;;;;5.88;1.42;;;;;;;19.63;100.00;99863.38;5113929;28;20031;-38
2023/08/03 10:55:48;;;;;;;;;;;;;;;20.00;100.00;99869.50;5114132;28;20028;-38
2023/08/03 10:58:13;;;;;;;6.22;1.88;;;;;;;19.93;100.00;99875.44;5114233;28;20034;-37
2023/08/03 11:00:42;;;;;;;5.90;1.60;;;;;;;19.59;100.00;99856.88;5114133;28;20399;-37
2023/08/03 11:03:07;;;;;;;5.47;1.67;;;;;;;19.64;100.00;99872.41;5114054;28;20027;-37
2023/08/03 11:05:33;;;;;;;5.38;1.65;;;;;;;19.58;100.00;99871.72;5113708;28;20016;-37
2023/08/03 11:07:59;;;;;;;6.22;1.60;;;;;;;19.54;100.00;99884.41;5114832;28;20095;-37
2023/08/03 11:10:25;;;;;;;4.60;1.80;;;;;;;19.41;100.00;99894.34;5113892;28;20024;-38
2023/08/03 11:12:52;;;;;;;5.53;1.55;;;;;;;19.24;100.00;99886.00;5114508;28;20116;-37
2023/08/03 11:15:18;;;;;;;4.68;1.55;;;;;;;19.16;100.00;99901.25;5113822;28;20024;-37
2023/08/03 11:17:46;;;;;;;;;;;;;;;19.34;100.00;99915.09;5115188;28;20169;-37
2023/08/03 11:20:14;;;;;;;5.93;1.75;;;;;;;19.17;100.00;99921.25;5113723;28;19941;-38
2023/08/03 11:22:40;;;;;;;5.82;1.83;;;;;;;19.10;100.00;99921.69;5113777;28;20414;-37
2023/08/03 11:25:06;;;;;;;;;;;;;;;19.19;100.00;99927.25;5114251;28;20031;-38
2023/08/03 11:27:32;;;;;;;6.72;1.92;;;;;;;18.97;100.00;99926.09;5114090;28;19994;-38
2023/08/03 11:29:58;;;;;;;7.20;1.90;;;;;;;18.97;100.00;99928.81;5113802;28;20041;-38
2023/08/03 11:32:24;;;;;;;;;;;;;;;19.10;100.00;99946.34;5114773;28;20036;-37
2023/08/03 11:34:57;;;;;;;4.45;1.60;;;;;;;18.76;100.00;99944.09;5113762;28;19907;-37
2023/08/03 11:37:23;;;;;;;6.50;2.15;;;;;;;18.75;100.00;99958.91;5114007;28;20432;-38
2023/08/03 11:39:49;;;;;;;;;;;;;;;18.79;100.00;99968.16;5114097;28;20107;-36
2023/08/03 11:42:15;;;;;;;5.40;1.30;;;;;;;18.36;100.00;99965.72;5113500;28;19965;-37
2023/08/03 11:44:45;;;;;;;3.45;1.70;;;;;;;18.23;100.00;99985.66;5113589;28;20024;-37
2023/08/03 11:47:10;;;;;;;3.28;1.10;;;;;;;18.01;100.00;99992.63;5113618;28;20027;-37